Airfield :
LOGIN :

Register | Disclaimer

   EN    FR    IT 

 










Legend :    VFR   Marginal VFR   IFR   Intensive IFR   Very Intensive IFR
Visi :
Ceiling :
>= 8 km
>= 3000ft
5 to 8 km
1000 to 3000 ft
1500m to 5 km
500 to 1000 ft
800 to 1500m
200 to 500 ft
< 800m
< 200 ft
Symbols :   Thunderstorms  Fog  Heavy snow  Heavy precipitations  Wind > 20 kt
SIGMETs :     Misc.  Thunderstorms  Icing  Turbulence  Mountain Waves  Volcanic Ashes







- Airport Elevation : 1213 ft
- IATA code : SCQ


LEST - Santiago de Compostela

CURRENT METAR :
  • 262130Z 15003KT 110V170 CAVOK 15/09 Q1020 NOSIG

EXPIRED METARs :
  • 262100Z VRB02KT CAVOK 15/08 Q1020 NOSIG
  • 262030Z VRB01KT CAVOK 16/07 Q1021 NOSIG
  • 262000Z 22003KT 180V240 CAVOK 17/07 Q1021 NOSIG
  • 261930Z VRB02KT CAVOK 17/07 Q1021 NOSIG
  • 261900Z 23003KT 200V260 CAVOK 17/07 Q1021 NOSIG

TAF TAF LEST
Valid from the 26 at 18:00 until the 27 at 18:00 UTC


261700Z 2618/2718 24006KT 9999 FEW020 TX21/2714Z TN11/2707Z
TEMPO 2701/2710 BKN010
PROB30
TEMPO 2702/2708 1500 -DZ BR BKN006
No reported NOTAMs for that airfield.



MET'MAP, your aeronautical weather chart ! - Copyright ORBIFLY December 2007 - Disclaimer

ORBIFLY MET'MAP TEAM :

Programming & Development : Alexandra Zaïnal
Concept & Development : Baudouin d'Aumeries
Co-Development & Prog : Marc-Olivier Méhu
Technical & hardware support : Manuel Goepfert

Contact : metmap@orbifly.com




SOURCES & CREDITS :

   NOAA